createdAt,value
2023-04-21T00:00:47.158Z,20.9
2023-04-21T00:06:41.478Z,20.9
2023-04-21T00:12:33.130Z,20.9
2023-04-21T00:18:24.265Z,20.9
2023-04-21T00:24:16.013Z,20.9
2023-04-21T00:30:07.458Z,20.9
2023-04-21T00:35:43.461Z,20.9
2023-04-21T00:41:35.938Z,20.9
2023-04-21T00:47:12.244Z,20.9
2023-04-21T00:52:48.394Z,20.9
2023-04-21T00:58:25.299Z,20.9
2023-04-21T01:04:03.849Z,20.9
2023-04-21T01:09:55.658Z,20.8
2023-04-21T01:15:31.562Z,20.8
2023-04-21T01:21:23.469Z,20.8
2023-04-21T01:27:14.557Z,20.8
2023-04-21T01:33:06.633Z,20.8
2023-04-21T01:38:57.801Z,20.8
2023-04-21T01:49:40.049Z,20.8
2023-04-21T01:55:31.949Z,20.8
2023-04-21T02:00:52.251Z,20.8
2023-04-21T02:06:46.014Z,20.8
2023-04-21T02:12:37.291Z,20.8
2023-04-21T02:18:45.923Z,20.8
2023-04-21T02:24:37.840Z,20.8
2023-04-21T02:30:13.915Z,20.8
2023-04-21T02:36:12.110Z,20.8
2023-04-21T02:42:03.740Z,20.8
2023-04-21T02:47:55.457Z,20.8
2023-04-21T02:53:47.782Z,20.8
2023-04-21T02:59:39.570Z,20.8
2023-04-21T03:05:32.649Z,20.7
2023-04-21T03:11:23.849Z,20.8
2023-04-21T03:17:16.100Z,20.7
2023-04-21T03:23:08.602Z,20.7
2023-04-21T03:29:00.428Z,20.7
2023-04-21T03:34:37.927Z,20.7
2023-04-21T03:40:41.617Z,20.7
2023-04-21T03:46:33.415Z,20.7
2023-04-21T03:52:27.457Z,20.7
2023-04-21T03:58:18.740Z,20.7
2023-04-21T04:04:13.382Z,20.7
2023-04-21T04:10:05.373Z,20.6
2023-04-21T04:15:26.137Z,20.6
2023-04-21T04:21:18.319Z,20.6
2023-04-21T04:27:09.664Z,20.6
2023-04-21T04:32:45.944Z,20.6
2023-04-21T04:38:40.353Z,20.6
2023-04-21T04:44:33.950Z,20.6
2023-04-21T04:50:28.525Z,20.6
2023-04-21T04:56:19.232Z,20.6
2023-04-21T05:02:10.395Z,20.6
2023-04-21T05:07:49.267Z,20.6
2023-04-21T05:13:40.346Z,20.6
2023-04-21T05:19:35.192Z,20.6
2023-04-21T05:25:26.886Z,20.6
2023-04-21T05:31:21.492Z,20.6
2023-04-21T05:37:16.594Z,20.6
2023-04-21T05:43:08.859Z,20.6
2023-04-21T05:48:46.724Z,20.5
2023-04-21T05:53:52.201Z,20.6
2023-04-21T05:59:43.820Z,20.6
2023-04-21T06:05:23.519Z,20.5
2023-04-21T06:11:00.111Z,20.5
2023-04-21T06:16:51.927Z,20.5
2023-04-21T06:22:43.300Z,20.5
2023-04-21T06:28:19.698Z,20.5
2023-04-21T06:33:44.195Z,20.5
2023-04-21T06:39:35.706Z,20.5
2023-04-21T06:45:27.990Z,20.5
2023-04-21T06:51:04.046Z,20.5
2023-04-21T06:56:39.913Z,20.5
2023-04-21T07:02:34.954Z,20.5
2023-04-21T07:08:28.180Z,20.4
2023-04-21T07:14:19.295Z,20.4
2023-04-21T07:20:11.604Z,20.4
2023-04-21T07:26:03.771Z,20.4
2023-04-21T07:31:39.241Z,20.4
2023-04-21T07:37:30.397Z,20.4
2023-04-21T07:43:22.745Z,20.4
2023-04-21T07:49:13.547Z,20.4
2023-04-21T07:55:05.365Z,20.4
2023-04-21T08:00:41.481Z,20.4
2023-04-21T08:06:40.618Z,20.4
2023-04-21T08:12:34.050Z,20.4
2023-04-21T08:18:10.572Z,20.4
2023-04-21T08:23:50.787Z,20.4
2023-04-21T08:29:27.225Z,20.4
2023-04-21T08:35:33.890Z,20.4
2023-04-21T08:41:50.445Z,20.4
2023-04-21T08:47:45.685Z,20.4
2023-04-21T08:53:39.676Z,20.4
2023-04-21T08:59:46.596Z,20.4
2023-04-21T09:05:29.847Z,20.3
2023-04-21T09:11:09.579Z,20.4
2023-04-21T09:17:01.505Z,20.3
2023-04-21T09:22:38.342Z,20.3
2023-04-21T09:28:32.309Z,20.3
2023-04-21T09:34:44.855Z,20.3
2023-04-21T09:41:18.870Z,20.3
2023-04-21T09:47:36.307Z,20.3
2023-04-21T09:54:22.405Z,20.3
2023-04-21T10:00:04.190Z,20.3
2023-04-21T10:05:59.975Z,20.3
2023-04-21T10:11:51.314Z,20.3
2023-04-21T10:17:45.507Z,20.3
2023-04-21T10:23:37.591Z,20.3
2023-04-21T10:29:32.819Z,20.3
2023-04-21T10:35:33.754Z,20.3
2023-04-21T10:41:30.382Z,20.3
2023-04-21T10:47:21.838Z,20.3
2023-04-21T10:53:13.781Z,20.3
2023-04-21T10:59:05.483Z,20.3
2023-04-21T11:05:02.642Z,20.3
2023-04-21T11:10:55.676Z,20.3
2023-04-21T11:16:47.130Z,20.2
2023-04-21T11:22:38.571Z,20.2
2023-04-21T11:28:30.117Z,20.3
2023-04-21T11:34:06.369Z,20.2
2023-04-21T11:39:58.178Z,20.2
2023-04-21T11:45:50.686Z,20.2
2023-04-21T11:51:42.820Z,20.2
2023-04-21T11:57:19.438Z,20.2
2023-04-21T12:03:11.493Z,20.2
2023-04-21T12:08:50.508Z,20.2
2023-04-21T12:14:43.139Z,20.2
2023-04-21T12:20:35.637Z,20.2
2023-04-21T12:26:27.573Z,20.2
2023-04-21T12:32:22.482Z,20.1
2023-04-21T12:38:15.951Z,20.2
2023-04-21T12:44:07.223Z,20.1
2023-04-21T12:50:01.549Z,20.1
2023-04-21T12:55:38.033Z,20.1
2023-04-21T13:01:41.982Z,20.1
2023-04-21T13:07:35.678Z,20.1
2023-04-21T13:13:12.749Z,20.1
2023-04-21T13:19:04.461Z,20.1
2023-04-21T13:24:57.984Z,20.1
2023-04-21T13:30:49.423Z,20.1
2023-04-21T13:36:45.679Z,20.1
2023-04-21T13:42:25.444Z,20.1
2023-04-21T13:48:17.556Z,20.1
2023-04-21T13:54:11.005Z,20.1
2023-04-21T13:59:48.213Z,20.1
2023-04-21T14:05:28.297Z,20.1
2023-04-21T14:11:07.660Z,20.1
2023-04-21T14:17:45.955Z,20.1
2023-04-21T14:23:37.573Z,20.1
2023-04-21T14:29:29.357Z,20.1
2023-04-21T14:35:06.714Z,20.1
2023-04-21T14:40:45.866Z,20.1
2023-04-21T14:46:24.265Z,20
2023-04-21T14:52:13.162Z,20.1
2023-04-21T14:58:20.618Z,20
2023-04-21T15:04:00.630Z,20
2023-04-21T15:09:41.886Z,20
2023-04-21T15:15:18.310Z,20
2023-04-21T15:21:05.425Z,20
2023-04-21T15:26:56.686Z,20
2023-04-21T15:32:32.790Z,20
2023-04-21T15:38:08.947Z,20
2023-04-21T15:43:58.467Z,20
2023-04-21T15:49:35.898Z,20
2023-04-21T15:55:28.393Z,19.9
2023-04-21T16:01:21.902Z,19.9
2023-04-21T16:07:02.254Z,19.9
2023-04-21T16:12:54.296Z,19.9
2023-04-21T16:19:22.537Z,19.9
2023-04-21T16:25:15.497Z,19.9
2023-04-21T16:31:07.946Z,19.9
2023-04-21T16:37:02.754Z,19.9
2023-04-21T16:42:54.847Z,19.9
2023-04-21T16:48:48.485Z,19.9
2023-04-21T16:54:40.152Z,19.9
2023-04-21T17:00:30.852Z,19.9
2023-04-21T17:06:25.280Z,19.9
2023-04-21T17:12:16.325Z,19.9
2023-04-21T17:18:10.303Z,19.9
2023-04-21T17:24:01.544Z,19.9
2023-04-21T17:30:10.374Z,19.9
2023-04-21T17:36:45.165Z,19.9
2023-04-21T17:42:37.018Z,19.9
2023-04-21T17:48:28.882Z,19.9
2023-04-21T17:54:04.938Z,19.9
2023-04-21T17:59:57.352Z,19.9
2023-04-21T18:05:36.253Z,19.9
2023-04-21T18:11:11.811Z,19.8
2023-04-21T18:16:49.228Z,19.9
2023-04-21T18:22:26.041Z,19.9
2023-04-21T18:28:16.840Z,19.8
2023-04-21T18:33:38.281Z,19.8
2023-04-21T18:39:13.132Z,19.8
2023-04-21T18:44:19.094Z,19.8
2023-04-21T18:49:56.652Z,19.8
2023-04-21T18:55:32.654Z,19.8
2023-04-21T19:01:08.798Z,19.8
2023-04-21T19:06:47.266Z,19.8
2023-04-21T19:12:54.499Z,19.8
2023-04-21T19:18:59.626Z,19.8
2023-04-21T19:24:51.085Z,19.8
2023-04-21T19:30:42.512Z,19.8
2023-04-21T19:36:35.631Z,19.8
2023-04-21T19:42:26.770Z,19.8
2023-04-21T19:48:19.374Z,19.8
2023-04-21T19:54:26.454Z,19.8
2023-04-21T20:00:35.059Z,19.7
2023-04-21T20:06:29.864Z,19.7
2023-04-21T20:12:20.616Z,19.7
2023-04-21T20:18:12.822Z,19.7
2023-04-21T20:24:04.342Z,19.7
2023-04-21T20:29:42.604Z,19.7
2023-04-21T20:35:34.490Z,19.7
2023-04-21T20:41:10.565Z,19.7
2023-04-21T20:47:00.369Z,19.7
2023-04-21T20:52:52.342Z,19.7
2023-04-21T20:58:43.071Z,19.6
2023-04-21T21:04:39.281Z,19.6
2023-04-21T21:10:34.409Z,19.6
2023-04-21T21:16:25.474Z,19.6
2023-04-21T21:22:01.573Z,19.6
2023-04-21T21:27:52.763Z,19.6
2023-04-21T21:33:44.571Z,19.6
2023-04-21T21:39:36.282Z,19.6
2023-04-21T21:45:28.188Z,19.6
2023-04-21T21:51:24.594Z,19.6
2023-04-21T21:57:00.933Z,19.6
2023-04-21T22:02:56.438Z,19.6
2023-04-21T22:08:51.190Z,19.6
2023-04-21T22:14:55.115Z,19.6
2023-04-21T22:20:46.750Z,19.6
2023-04-21T22:26:37.834Z,19.6
2023-04-21T22:32:14.540Z,19.6
2023-04-21T22:38:06.022Z,19.6
2023-04-21T22:43:56.692Z,19.6
2023-04-21T22:49:48.987Z,19.6
2023-04-21T22:55:40.895Z,19.6
2023-04-21T23:01:33.378Z,19.6
2023-04-21T23:07:11.192Z,19.6
2023-04-21T23:13:03.175Z,19.6
2023-04-21T23:18:55.601Z,19.6
2023-04-21T23:24:46.919Z,19.5
2023-04-21T23:30:39.162Z,19.6
2023-04-21T23:36:30.817Z,19.6
2023-04-21T23:42:22.604Z,19.5
2023-04-21T23:48:15.054Z,19.6
2023-04-21T23:53:52.217Z,19.5
2023-04-21T23:59:44.637Z,19.5
